createdAt,value
2024-03-08T00:09:28.617Z,28.50
2024-03-08T00:24:32.197Z,26.33
2024-03-08T00:39:34.304Z,27.70
2024-03-08T00:54:39.535Z,28.90
2024-03-08T01:09:41.502Z,28.40
2024-03-08T01:24:44.051Z,28.97
2024-03-08T01:39:46.086Z,21.27
2024-03-08T01:54:48.100Z,28.03
2024-03-08T02:09:50.128Z,26.83
2024-03-08T02:24:52.259Z,30.87
2024-03-08T02:39:54.275Z,25.10
2024-03-08T02:54:56.281Z,33.60
2024-03-08T03:09:58.262Z,26.47
2024-03-08T03:25:01.918Z,27.77
2024-03-08T03:40:04.135Z,23.50
2024-03-08T03:55:06.359Z,26.10
2024-03-08T04:10:10.276Z,32.73
2024-03-08T04:25:12.259Z,29.87
2024-03-08T04:40:14.367Z,22.43
2024-03-08T04:55:16.336Z,34.07
2024-03-08T05:10:18.598Z,31.60
2024-03-08T05:25:20.676Z,32.60
2024-03-08T05:40:23.658Z,24.00
2024-03-08T05:55:26.152Z,28.10
2024-03-08T06:10:28.829Z,26.97
2024-03-08T06:25:31.246Z,19.70
2024-03-08T06:40:33.376Z,23.17
2024-03-08T06:55:35.321Z,29.40
2024-03-08T07:10:38.635Z,20.40
2024-03-08T07:25:40.867Z,20.37
2024-03-08T07:40:49.442Z,23.03
2024-03-08T07:55:51.579Z,19.80
2024-03-08T08:10:53.660Z,23.33
2024-03-08T08:25:56.931Z,21.27
2024-03-08T08:41:09.144Z,27.90
2024-03-08T08:56:14.189Z,21.33
2024-03-08T09:11:16.702Z,20.70
2024-03-08T09:26:25.701Z,22.43
2024-03-08T09:41:36.539Z,24.03
2024-03-08T09:56:47.367Z,15.57
2024-03-08T10:11:49.999Z,20.33
2024-03-08T10:27:12.519Z,15.87
2024-03-08T10:42:21.103Z,19.10
2024-03-08T10:57:25.409Z,22.00
2024-03-08T11:12:49.106Z,23.50
2024-03-08T11:28:07.256Z,11.87
2024-03-08T11:43:09.670Z,14.50
2024-03-08T11:58:13.905Z,16.63
2024-03-08T12:13:16.113Z,14.23
2024-03-08T12:28:20.980Z,16.00
2024-03-08T12:43:23.678Z,12.07
2024-03-08T12:58:27.344Z,13.70
2024-03-08T13:13:29.395Z,12.23
2024-03-08T13:28:37.820Z,17.23
2024-03-08T13:43:41.446Z,22.50
2024-03-08T13:58:45.438Z,18.37
2024-03-08T14:13:48.359Z,30.73
2024-03-08T14:28:53.301Z,18.00
2024-03-08T14:43:55.635Z,22.70
2024-03-08T14:59:01.012Z,21.07
2024-03-08T15:14:03.334Z,19.07
2024-03-08T15:29:06.400Z,28.30
2024-03-08T15:44:12.419Z,23.27
2024-03-08T15:59:14.768Z,26.75
2024-03-08T16:14:17.708Z,30.90
2024-03-08T16:29:22.082Z,31.80
2024-03-08T16:44:26.146Z,47.67
2024-03-08T16:59:28.594Z,50.20
2024-03-08T17:14:31.053Z,56.40
2024-03-08T17:30:11.870Z,48.13
2024-03-08T17:45:19.542Z,42.73
2024-03-08T18:00:39.095Z,37.17
2024-03-08T18:15:41.971Z,32.00
2024-03-08T18:30:50.275Z,35.37
2024-03-08T18:45:55.332Z,40.33
2024-03-08T19:00:57.442Z,39.17
2024-03-08T19:15:59.485Z,37.23
2024-03-08T19:31:01.475Z,32.50
2024-03-08T19:46:06.762Z,36.80
2024-03-08T20:01:10.965Z,45.50
2024-03-08T20:16:14.174Z,35.30
2024-03-08T20:31:16.158Z,31.77
2024-03-08T20:46:19.827Z,28.73
2024-03-08T21:01:22.047Z,20.90
2024-03-08T21:16:24.941Z,26.97
2024-03-08T21:31:27.080Z,20.10
2024-03-08T21:46:30.838Z,30.67
2024-03-08T22:01:33.753Z,27.43
2024-03-08T22:16:37.228Z,24.23
2024-03-08T22:31:41.811Z,23.23
2024-03-08T22:46:43.934Z,25.53
2024-03-08T23:01:46.479Z,29.70
2024-03-08T23:16:51.186Z,36.97
2024-03-08T23:31:53.208Z,26.80
2024-03-08T23:46:55.344Z,30.07
